Time;durP1;ratioP1;P1;durP2;ratioP2;P2;SDS_P1;SDS_P2;PMS_P1;PMS_P2;Temp;Humidity;BMP_temperature;BMP_pressure;BME280_temperature;BME280_humidity;BME280_pressure;Samples;Min_cycle;Max_cycle;Signal;HPM_P1;HPM_P2
2023/04/04 00:00:20;;;;;;;;;;;;;;;-144.99;82.17;52476.63;5049414;28;20083;-67
2023/04/04 00:02:48;;;;;;;;;;;;;;;-144.99;82.14;52427.72;5047659;28;19932;-68
2023/04/04 00:05:14;;;;;;;;;;;;;;;-144.99;81.93;52431.78;5048968;28;20062;-63
2023/04/04 00:07:41;;;;;;;;;;;;;;;-144.99;82.02;52484.78;5046888;28;20398;-63
2023/04/04 00:10:08;;;;;;;;;;;;;;;-144.99;82.78;52466.44;5048543;28;20002;-62
2023/04/04 00:12:36;;;;;;;;;;;;;;;-144.99;83.53;52501.09;5047571;28;19979;-63
2023/04/04 00:15:03;;;;;;;;;;;;;;;-144.99;83.97;52513.31;5049994;28;19947;-64
2023/04/04 00:17:29;;;;;;;;;;;;;;;-144.99;84.07;52513.31;5051167;28;20004;-71
2023/04/04 00:19:56;;;;;;;;;;;;;;;-144.99;84.12;52488.84;5052896;28;19925;-69
2023/04/04 00:22:23;;;;;;;;;;;;;;;-144.99;84.21;52486.81;5060078;28;20481;-69
2023/04/04 00:24:50;;;;;;;;;;;;;;;-144.99;83.41;52492.94;5056830;28;20344;-69
2023/04/04 00:27:16;;;;;;;;;;;;;;;-144.99;81.30;52470.50;5054576;28;19963;-69
2023/04/04 00:29:45;;;;;;;;;;;;;;;-144.99;80.80;52492.94;5051903;28;19975;-69
2023/04/04 00:32:12;;;;;;;;;;;;;;;-144.99;80.61;52488.84;5046171;28;19925;-69
2023/04/04 00:34:38;;;;;;;;;;;;;;;-144.99;80.57;52427.72;5050817;28;20404;-69
2023/04/04 00:37:06;;;;;;;;;;;;;;;-144.99;80.67;52499.06;5049686;28;20439;-69
2023/04/04 00:39:33;;;;;;;;;;;;;;;-144.99;80.71;52468.47;5049850;28;19960;-67
2023/04/04 00:41:59;;;;;;;;;;;;;;;-144.99;80.48;52468.47;5048354;28;19925;-68
2023/04/04 00:44:26;;;;;;;;;;;;;;;-144.99;80.71;52484.78;5050340;28;20050;-67
2023/04/04 00:46:54;;;;;;;;;;;;;;;-144.99;80.64;52423.63;5054653;28;20366;-67
2023/04/04 00:49:21;;;;;;;;;;;;;;;-144.99;80.69;52456.25;5049549;28;19936;-68
2023/04/04 00:51:48;;;;;;;;;;;;;;;-144.99;80.70;52456.25;5045829;28;20678;-66
2023/04/04 00:54:14;;;;;;;;;;;;;;;-144.99;80.49;52464.41;5046754;28;20019;-60
2023/04/04 00:56:41;;;;;;;;;;;;;;;-144.99;80.48;52515.34;5048297;28;20360;-59
2023/04/04 00:59:08;;;;;;;;;;;;;;;-144.99;82.74;52492.94;5047500;28;19924;-61
2023/04/04 01:01:35;;;;;;;;;;;;;;;-144.99;83.73;52456.25;5046843;28;19932;-61
2023/04/04 01:04:04;;;;;;;;;;;;;;;-144.99;83.23;52431.78;5048203;28;19940;-61
2023/04/04 01:06:31;;;;;;;;;;;;;;;-144.99;81.26;52464.41;5048555;28;19924;-61
2023/04/04 01:08:58;;;;;;;;;;;;;;;-144.99;80.89;52513.31;5048277;28;20020;-61
2023/04/04 01:11:25;;;;;;;;;;;;;;;-144.99;80.96;52480.72;5042004;28;19960;-60
2023/04/04 01:13:52;;;;;;;;;;;;;;;-144.99;83.13;52464.41;5049321;28;20039;-61
2023/04/04 01:16:19;;;;;;;;;;;;;;;-144.99;83.84;52476.63;5054107;28;19933;-60
2023/04/04 01:18:46;;;;;;;;;;;;;;;-144.99;83.88;52482.75;5055092;28;19972;-63
2023/04/04 01:21:16;;;;;;;;;;;;;;;-144.99;83.99;52490.91;5052056;28;20390;-61
2023/04/04 01:23:47;;;;;;;;;;;;;;;-144.99;83.93;52482.75;5047715;28;19931;-61
2023/04/04 01:26:15;;;;;;;;;;;;;;;-144.99;83.96;52501.09;5050821;28;19974;-60
2023/04/04 01:28:41;;;;;;;;;;;;;;;-144.99;83.92;52439.94;5043661;28;19978;-61
2023/04/04 01:31:12;;;;;;;;;;;;;;;-144.99;83.77;52415.47;5048536;28;19933;-61
2023/04/04 01:33:42;;;;;;;;;;;;;;;-144.99;83.94;52456.25;5049010;28;19932;-62
2023/04/04 01:36:13;;;;;;;;;;;;;;;-144.99;83.84;52460.31;5048558;28;19925;-62
2023/04/04 01:38:46;;;;;;;;;;;;;;;-144.99;83.69;52505.16;5049266;28;20452;-62
2023/04/04 01:41:15;;;;;;;;;;;;;;;-144.99;83.85;52460.31;5046956;28;19935;-62
2023/04/04 01:43:44;;;;;;;;;;;;;;;-144.99;83.93;52480.72;5048459;28;20337;-62
2023/04/04 01:46:11;;;;;;;;;;;;;;;-144.99;83.75;52476.63;5047623;28;20365;-63
2023/04/04 01:48:38;;;;;;;;;;;;;;;-144.99;83.83;52472.56;5051148;28;20384;-63
2023/04/04 01:51:05;;;;;;;;;;;;;;;-144.99;84.03;52446.06;5045885;28;20020;-63
2023/04/04 01:53:31;;;;;;;;;;;;;;;-144.99;83.68;52476.63;5046781;28;19925;-69
2023/04/04 01:55:58;;;;;;;;;;;;;;;-144.99;83.88;52468.47;5047876;28;19929;-69
2023/04/04 01:58:26;;;;;;;;;;;;;;;-144.99;84.07;52464.41;5041008;28;19925;-69
2023/04/04 02:00:52;;;;;;;;;;;;;;;-144.99;83.85;52423.63;5046995;28;20368;-66
2023/04/04 02:03:19;;;;;;;;;;;;;;;-144.99;83.98;52521.47;5046319;28;20069;-65
2023/04/04 02:05:46;;;;;;;;;;;;;;;-144.99;83.92;52476.63;5047239;28;19939;-66
2023/04/04 02:08:14;;;;;;;;;;;;;;;-144.99;84.04;52452.16;5045278;28;19964;-66
2023/04/04 02:10:40;;;;;;;;;;;;;;;-144.99;83.89;52476.63;5047475;28;19925;-66
2023/04/04 02:13:07;;;;;;;;;;;;;;;-144.99;83.98;52492.94;5045391;28;19952;-66
2023/04/04 02:15:35;;;;;;;;;;;;;;;-144.99;84.08;52497.00;5047370;28;19924;-66
2023/04/04 02:18:02;;;;;;;;;;;;;;;-144.99;83.94;52468.47;5048734;28;19925;-64
2023/04/04 02:20:29;;;;;;;;;;;;;;;-144.99;84.06;52437.91;5045468;28;20164;-64
2023/04/04 02:22:56;;;;;;;;;;;;;;;-144.99;84.14;52464.41;5052529;28;20382;-64
2023/04/04 02:25:24;;;;;;;;;;;;;;;-144.99;84.15;52464.41;5052918;28;20401;-62
2023/04/04 02:27:50;;;;;;;;;;;;;;;-144.99;84.06;52429.75;5051378;28;20823;-63
2023/04/04 02:30:18;;;;;;;;;;;;;;;-144.99;84.30;52472.56;5050202;28;19929;-62
2023/04/04 02:32:46;;;;;;;;;;;;;;;-144.99;84.38;52480.72;5050936;28;20237;-62
2023/04/04 02:35:12;;;;;;;;;;;;;;;-144.99;84.22;52472.56;5050017;28;19971;-61
2023/04/04 02:37:39;;;;;;;;;;;;;;;-144.99;84.19;52464.41;5050011;28;19925;-60
2023/04/04 02:40:06;;;;;;;;;;;;;;;-144.99;83.99;52444.03;5049740;28;19936;-63
2023/04/04 02:42:32;;;;;;;;;;;;;;;-144.99;84.12;52476.63;5047382;28;19998;-63
2023/04/04 02:44:59;;;;;;;;;;;;;;;-144.99;84.07;52476.63;5052224;28;20237;-61
2023/04/04 02:47:26;;;;;;;;;;;;;;;-144.99;84.16;52468.47;5051049;28;19931;-62
2023/04/04 02:49:54;;;;;;;;;;;;;;;-144.99;84.11;52464.41;5050668;28;19982;-62
2023/04/04 02:52:21;;;;;;;;;;;;;;;-144.99;84.26;52456.25;5041599;28;19933;-62
2023/04/04 02:54:48;;;;;;;;;;;;;;;-144.99;84.26;52452.16;5053293;28;19998;-62
2023/04/04 02:57:15;;;;;;;;;;;;;;;-144.99;84.29;52492.94;5053520;28;19928;-62
2023/04/04 02:59:41;;;;;;;;;;;;;;;-144.99;84.58;52468.47;5053892;28;20374;-62
2023/04/04 03:02:08;;;;;;;;;;;;;;;-144.99;84.79;52484.78;5051694;28;19929;-62
2023/04/04 03:04:35;;;;;;;;;;;;;;;-144.99;84.94;52454.22;5053982;28;19929;-61
2023/04/04 03:07:03;;;;;;;;;;;;;;;-144.99;85.04;52456.25;5052260;28;20359;-61
2023/04/04 03:09:30;;;;;;;;;;;;;;;-144.99;85.26;52484.78;5054343;28;19931;-64
2023/04/04 03:11:57;;;;;;;;;;;;;;;-144.99;85.55;52484.78;5051602;28;19933;-65
2023/04/04 03:14:25;;;;;;;;;;;;;;;-144.99;85.13;52507.19;5042542;28;19968;-64
2023/04/04 03:16:52;;;;;;;;;;;;;;;-144.99;85.00;52472.56;5049922;28;20049;-64
2023/04/04 03:19:19;;;;;;;;;;;;;;;-144.99;85.07;52484.78;5048921;28;19968;-64
2023/04/04 03:21:47;;;;;;;;;;;;;;;-144.99;85.26;52492.94;5049892;28;20434;-64
2023/04/04 03:24:15;;;;;;;;;;;;;;;-144.99;85.45;52450.13;5050226;28;19937;-66
2023/04/04 03:26:41;;;;;;;;;;;;;;;-144.99;85.63;52476.63;5050517;28;19944;-66
2023/04/04 03:29:08;;;;;;;;;;;;;;;-144.99;85.68;52456.25;5049788;28;20429;-67
2023/04/04 03:31:34;;;;;;;;;;;;;;;-144.99;85.46;52503.13;5048428;28;19956;-67
2023/04/04 03:34:03;;;;;;;;;;;;;;;-144.99;83.64;52501.09;5049714;28;20392;-68
2023/04/04 03:36:29;;;;;;;;;;;;;;;-144.99;83.27;52468.47;5047198;28;20370;-67
2023/04/04 03:38:56;;;;;;;;;;;;;;;-144.99;83.32;52456.25;5047277;28;19935;-67
2023/04/04 03:41:24;;;;;;;;;;;;;;;-144.99;83.06;52501.09;5047999;28;20356;-64
2023/04/04 03:43:50;;;;;;;;;;;;;;;-144.99;83.38;52492.94;5048995;28;20025;-64
2023/04/04 03:46:17;;;;;;;;;;;;;;;-144.99;83.29;52448.09;5049163;28;19933;-63
2023/04/04 03:48:43;;;;;;;;;;;;;;;-144.99;83.16;52476.63;5053611;28;19924;-70
2023/04/04 03:51:10;;;;;;;;;;;;;;;-144.99;83.18;52435.88;5048781;28;19975;-70
2023/04/04 03:53:36;;;;;;;;;;;;;;;-144.99;83.18;52480.72;5050782;28;19929;-63
2023/04/04 03:56:03;;;;;;;;;;;;;;;-144.99;83.45;52460.31;5051765;28;20565;-63
2023/04/04 03:58:31;;;;;;;;;;;;;;;-144.99;83.40;52452.16;5048802;28;19940;-63
2023/04/04 04:00:57;;;;;;;;;;;;;;;-144.99;83.32;52452.16;5047546;28;19932;-63
2023/04/04 04:03:24;;;;;;;;;;;;;;;-144.99;83.20;52462.34;5048584;28;20035;-63
2023/04/04 04:05:52;;;;;;;;;;;;;;;-144.99;83.27;52464.41;5049024;28;19982;-63
2023/04/04 04:08:18;;;;;;;;;;;;;;;-144.99;83.26;52450.13;5048438;28;19990;-62
2023/04/04 04:10:45;;;;;;;;;;;;;;;-144.99;83.35;52452.16;5048095;28;19990;-63
2023/04/04 04:13:11;;;;;;;;;;;;;;;-144.99;83.46;52439.94;5047683;28;19928;-60
2023/04/04 04:15:40;;;;;;;;;;;;;;;-144.99;83.38;52460.31;5048985;28;19994;-60
2023/04/04 04:18:06;;;;;;;;;;;;;;;-144.99;83.29;52435.88;5046945;28;19929;-60
2023/04/04 04:20:33;;;;;;;;;;;;;;;-144.99;83.29;52456.25;5049175;28;20025;-60
2023/04/04 04:22:59;;;;;;;;;;;;;;;-144.99;83.33;52417.53;5049196;28;19979;-60
2023/04/04 04:25:26;;;;;;;;;;;;;;;-144.99;83.44;52464.41;5048805;28;19971;-61
2023/04/04 04:27:55;;;;;;;;;;;;;;;-144.99;83.54;52439.94;5048321;28;19928;-61
2023/04/04 04:30:22;;;;;;;;;;;;;;;-144.99;83.49;52478.66;5045786;28;20338;-61
2023/04/04 04:32:50;;;;;;;;;;;;;;;-144.99;83.64;52472.56;5048993;28;19933;-63
2023/04/04 04:35:16;;;;;;;;;;;;;;;-144.99;83.55;52497.00;5052509;28;19925;-63
2023/04/04 04:37:43;;;;;;;;;;;;;;;-144.99;83.69;52444.03;5051276;28;19936;-62
2023/04/04 04:40:10;;;;;;;;;;;;;;;-144.99;83.73;52448.09;5048892;28;19951;-61
2023/04/04 04:42:36;;;;;;;;;;;;;;;-144.99;83.76;52468.47;5048414;28;20010;-61
2023/04/04 04:45:03;;;;;;;;;;;;;;;-144.99;83.82;52452.16;5048531;28;20002;-61
2023/04/04 04:47:30;;;;;;;;;;;;;;;-144.99;83.65;52464.41;5051579;28;19928;-61
2023/04/04 04:49:58;;;;;;;;;;;;;;;-144.99;83.69;52476.63;5047021;28;20354;-67
2023/04/04 04:52:26;;;;;;;;;;;;;;;-144.99;83.74;52460.31;5047071;28;20014;-68
2023/04/04 04:54:54;;;;;;;;;;;;;;;-144.99;83.80;52415.47;5049565;28;20048;-68
2023/04/04 04:57:21;;;;;;;;;;;;;;;-144.99;83.80;52472.56;5048400;28;19929;-67
2023/04/04 04:59:48;;;;;;;;;;;;;;;-144.99;84.02;52460.31;5048278;28;19971;-68
2023/04/04 05:02:15;;;;;;;;;;;;;;;-144.99;84.02;52488.84;5048258;28;20310;-66
2023/04/04 05:04:43;;;;;;;;;;;;;;;-144.99;83.98;52435.88;5049931;28;20393;-65
2023/04/04 05:07:12;;;;;;;;;;;;;;;-144.99;83.88;52484.78;5049664;28;19924;-70
2023/04/04 05:09:38;;;;;;;;;;;;;;;-144.99;83.90;52472.56;5049600;28;19983;-66
2023/04/04 05:12:05;;;;;;;;;;;;;;;-144.99;83.80;52456.25;5047268;28;19979;-66
2023/04/04 05:14:31;;;;;;;;;;;;;;;-144.99;83.78;52484.78;5049782;28;19925;-64
2023/04/04 05:16:58;;;;;;;;;;;;;;;-144.99;83.75;52484.78;5048768;28;19968;-63
2023/04/04 05:19:24;;;;;;;;;;;;;;;-144.99;83.65;52448.09;5048037;28;19933;-62
2023/04/04 05:21:51;;;;;;;;;;;;;;;-144.99;83.59;52466.44;5051017;28;19983;-61
2023/04/04 05:24:19;;;;;;;;;;;;;;;-144.99;83.47;52484.78;5051560;28;20121;-61
2023/04/04 05:26:45;;;;;;;;;;;;;;;-144.99;83.29;52419.56;5048992;28;20463;-61
2023/04/04 05:29:12;;;;;;;;;;;;;;;-144.99;83.18;52452.16;5048952;28;20113;-61
2023/04/04 05:31:38;;;;;;;;;;;;;;;-144.99;83.24;52441.97;5051437;28;19936;-62
2023/04/04 05:34:07;;;;;;;;;;;;;;;-144.99;83.17;52456.25;5050674;28;20468;-68
2023/04/04 05:36:34;;;;;;;;;;;;;;;-144.99;82.90;52452.16;5048871;28;19936;-69
2023/04/04 05:39:01;;;;;;;;;;;;;;;-144.99;83.02;52415.47;5048554;28;19955;-67
2023/04/04 05:41:28;;;;;;;;;;;;;;;-144.99;82.79;52452.16;5047715;28;19935;-67
2023/04/04 05:43:55;;;;;;;;;;;;;;;-144.99;82.50;52444.03;5048575;28;19924;-61
2023/04/04 05:46:22;;;;;;;;;;;;;;;-144.99;82.35;52415.47;5046132;28;19971;-61
2023/04/04 05:48:49;;;;;;;;;;;;;;;-144.99;82.03;52492.94;5050494;28;20645;-62
2023/04/04 05:51:16;;;;;;;;;;;;;;;-144.99;81.83;52386.94;5047758;28;19975;-62
2023/04/04 05:53:44;;;;;;;;;;;;;;;-144.99;81.79;52464.41;5047133;28;19937;-62
2023/04/04 05:56:11;;;;;;;;;;;;;;;-144.99;81.16;52439.94;5046711;28;20346;-66
2023/04/04 05:58:38;;;;;;;;;;;;;;;-144.99;81.23;52417.53;5049201;28;19955;-65
2023/04/04 06:01:06;;;;;;;;;;;;;;;-144.99;81.06;52452.16;5050930;28;19987;-66
2023/04/04 06:03:33;;;;;;;;;;;;;;;-144.99;80.73;52446.06;5049760;28;19925;-66
2023/04/04 06:06:00;;;;;;;;;;;;;;;-144.99;80.60;52439.94;5050880;28;19936;-65
2023/04/04 06:08:26;;;;;;;;;;;;;;;-144.99;80.57;52415.47;5046278;28;19925;-66
2023/04/04 06:10:54;;;;;;;;;;;;;;;-144.99;80.52;52415.47;5049987;28;19929;-65
2023/04/04 06:13:20;;;;;;;;;;;;;;;-144.99;80.28;52399.19;5047430;28;20385;-63
2023/04/04 06:15:48;;;;;;;;;;;;;;;-144.99;80.21;52454.22;5048198;28;20378;-63
2023/04/04 06:18:16;;;;;;;;;;;;;;;-144.99;80.02;52431.78;5045498;28;19964;-61
2023/04/04 06:20:42;;;;;;;;;;;;;;;-144.99;79.97;52456.25;5047544;28;20248;-65
2023/04/04 06:23:09;;;;;;;;;;;;;;;-144.99;79.84;52423.63;5046833;28;20320;-63
2023/04/04 06:25:35;;;;;;;;;;;;;;;-144.99;79.49;52427.72;5047430;28;19998;-63
2023/04/04 06:28:02;;;;;;;;;;;;;;;-144.99;79.20;52411.41;5045610;28;19929;-63
2023/04/04 06:30:28;;;;;;;;;;;;;;;-144.99;78.82;52388.97;5051182;28;20002;-66
2023/04/04 06:32:57;;;;;;;;;;;;;;;-144.99;78.57;52427.72;5051293;28;20002;-64
2023/04/04 06:35:23;;;;;;;;;;;;;;;-144.99;77.86;52458.28;5051277;28;20086;-64
2023/04/04 06:37:54;;;;;;;;;;;;;;;-144.99;77.32;52435.88;5050072;28;19928;-65
2023/04/04 06:40:21;;;;;;;;;;;;;;;-144.99;76.72;52431.78;5051320;28;20019;-72
2023/04/04 06:42:49;;;;;;;;;;;;;;;-144.99;76.30;52382.88;5051112;28;19982;-72
2023/04/04 06:45:16;;;;;;;;;;;;;;;-144.99;75.96;52411.41;5051366;28;19935;-70
2023/04/04 06:47:42;;;;;;;;;;;;;;;-144.99;75.38;52431.78;5053716;28;19935;-69
2023/04/04 06:50:11;;;;;;;;;;;;;;;-144.99;75.42;52444.03;5053971;28;19943;-70
2023/04/04 06:52:38;;;;;;;;;;;;;;;-144.99;74.99;52382.88;5049415;28;20254;-69
2023/04/04 06:55:04;;;;;;;;;;;;;;;-144.99;74.64;52419.56;5051822;28;19964;-69
2023/04/04 06:57:31;;;;;;;;;;;;;;;-144.99;74.02;52407.31;5046876;28;20002;-69
2023/04/04 06:59:58;;;;;;;;;;;;;;;-144.99;73.82;52448.09;5051058;28;19925;-69
2023/04/04 07:02:24;;;;;;;;;;;;;;;-144.99;73.73;52419.56;5048239;28;19933;-69
2023/04/04 07:04:51;;;;;;;;;;;;;;;-144.99;73.11;52423.63;5051133;28;19937;-70
2023/04/04 07:07:19;;;;;;;;;;;;;;;-144.99;72.95;52423.63;5048386;28;19929;-69
2023/04/04 07:09:45;;;;;;;;;;;;;;;-144.99;72.49;52427.72;5050234;28;20023;-63
2023/04/04 07:12:12;;;;;;;;;;;;;;;-144.99;72.38;52427.72;5050779;28;19925;-65
2023/04/04 07:14:38;;;;;;;;;;;;;;;-144.99;72.28;52407.31;5050771;28;19929;-63
2023/04/04 07:17:06;;;;;;;;;;;;;;;-144.99;72.00;52382.88;5048830;28;19925;-63
2023/04/04 07:19:32;;;;;;;;;;;;;;;-144.99;71.79;52407.31;5050508;28;20012;-62
2023/04/04 07:21:59;;;;;;;;;;;;;;;-144.99;71.73;52427.72;5051412;28;20360;-66
2023/04/04 07:24:27;;;;;;;;;;;;;;;-144.99;71.55;52431.78;5046987;28;19968;-67
2023/04/04 07:26:53;;;;;;;;;;;;;;;-144.99;71.62;52399.19;5044219;28;20312;-67
2023/04/04 07:29:20;;;;;;;;;;;;;;;-144.99;71.36;52374.72;5051453;28;20025;-67
2023/04/04 07:31:46;;;;;;;;;;;;;;;-144.99;71.23;52405.28;5051589;28;19928;-68
2023/04/04 07:34:13;;;;;;;;;;;;;;;-144.99;71.01;52423.63;5048281;28;19926;-67
2023/04/04 07:36:40;;;;;;;;;;;;;;;-144.99;70.38;52403.25;5050116;28;19925;-68
2023/04/04 07:39:06;;;;;;;;;;;;;;;-144.99;70.37;52386.94;5049854;28;19970;-67
2023/04/04 07:41:34;;;;;;;;;;;;;;;-144.99;70.04;52391.03;5050410;28;19925;-67
2023/04/04 07:44:01;;;;;;;;;;;;;;;-144.99;70.16;52391.03;5048920;28;19979;-71
2023/04/04 07:46:27;;;;;;;;;;;;;;;-144.99;69.98;52382.88;5054062;28;20402;-69
2023/04/04 07:48:54;;;;;;;;;;;;;;;-144.99;69.23;52391.03;5046381;28;19928;-69
2023/04/04 07:51:28;;;;;;;;;;;;;;;-144.99;69.41;52378.78;5050162;28;19994;-70
2023/04/04 07:53:54;;;;;;;;;;;;;;;-144.99;69.00;52395.09;5050238;28;19935;-71
2023/04/04 07:56:21;;;;;;;;;;;;;;;-144.99;68.11;52370.63;5048618;28;19928;-64
2023/04/04 07:58:49;;;;;;;;;;;;;;;-144.99;67.36;52382.88;5048732;28;20385;-69
2023/04/04 08:01:16;;;;;;;;;;;;;;;-144.99;68.48;52391.03;5049681;28;19933;-67
2023/04/04 08:03:42;;;;;;;;;;;;;;;-144.99;68.05;52388.97;5044396;28;19924;-67
2023/04/04 08:06:09;;;;;;;;;;;;;;;-144.99;69.14;52366.56;5041408;28;19956;-65
2023/04/04 08:08:35;;;;;;;;;;;;;;;-144.99;68.28;52346.19;5050099;28;19946;-64
2023/04/04 08:11:02;;;;;;;;;;;;;;;-144.99;68.13;52358.41;5052123;28;19944;-64
2023/04/04 08:13:29;;;;;;;;;;;;;;;-144.99;67.96;52374.72;5054100;28;20032;-63
2023/04/04 08:15:57;;;;;;;;;;;;;;;-144.99;68.55;52399.19;5047501;28;20397;-63
2023/04/04 08:18:24;;;;;;;;;;;;;;;-144.99;68.64;52417.53;5051153;28;19975;-63
2023/04/04 08:20:50;;;;;;;;;;;;;;;-144.99;68.34;52395.09;5052110;28;20479;-63
2023/04/04 08:23:17;;;;;;;;;;;;;;;-144.99;68.24;52407.31;5051007;28;19925;-62
2023/04/04 08:25:44;;;;;;;;;;;;;;;-144.99;68.36;52386.94;5050414;28;19986;-64
2023/04/04 08:28:11;;;;;;;;;;;;;;;-144.99;68.53;52366.56;5051650;28;20008;-63
2023/04/04 08:30:38;;;;;;;;;;;;;;;-144.99;68.30;52391.03;5053310;28;20412;-62
2023/04/04 08:33:05;;;;;;;;;;;;;;;-144.99;69.94;52411.41;5053361;28;20011;-64
2023/04/04 08:35:32;;;;;;;;;;;;;;;-144.99;71.08;52395.09;5052288;28;19959;-69
2023/04/04 08:38:01;;;;;;;;;;;;;;;-144.99;70.25;52346.19;5046992;28;19925;-71
2023/04/04 08:40:29;;;;;;;;;;;;;;;-144.99;70.12;52350.25;5046945;28;19925;-67
2023/04/04 08:42:57;;;;;;;;;;;;;;;-144.99;68.37;52350.25;5047630;28;20023;-70
2023/04/04 08:45:24;;;;;;;;;;;;;;;-144.99;67.00;52366.56;5041132;28;19925;-70
2023/04/04 08:47:52;;;;;;;;;;;;;;;-144.99;66.16;52378.78;5051289;28;19935;-71
2023/04/04 08:50:20;;;;;;;;;;;;;;;-144.99;66.02;52354.34;5045797;28;19928;-71
2023/04/04 08:52:47;;;;;;;;;;;;;;;-144.99;65.21;52374.72;5047764;28;19990;-70
2023/04/04 08:55:14;;;;;;;;;;;;;;;-144.99;64.67;52366.56;5048948;28;19929;-70
2023/04/04 08:57:40;;;;;;;;;;;;;;;-144.99;64.52;52338.03;5046143;28;20208;-71
2023/04/04 09:00:08;;;;;;;;;;;;;;;-144.99;64.67;52350.25;5046928;28;19933;-70
2023/04/04 09:02:39;;;;;;;;;;;;;;;-144.99;64.55;52370.63;5044189;28;19928;-70
2023/04/04 09:05:08;;;;;;;;;;;;;;;-144.99;63.94;52333.94;5045506;28;19925;-71
2023/04/04 09:07:36;;;;;;;;;;;;;;;-144.99;63.57;52354.34;5048268;28;19935;-71
2023/04/04 09:10:03;;;;;;;;;;;;;;;-144.99;63.78;52354.34;5047188;28;19936;-71
2023/04/04 09:12:31;;;;;;;;;;;;;;;-144.99;63.15;52317.66;5048151;28;19929;-71
2023/04/04 09:14:59;;;;;;;;;;;;;;;-144.99;63.09;52350.25;5047285;28;19932;-70
2023/04/04 09:17:26;;;;;;;;;;;;;;;-144.99;62.59;52297.25;5033918;28;19932;-70
2023/04/04 09:19:53;;;;;;;;;;;;;;;-144.99;62.67;52350.25;5038087;28;19932;-70
2023/04/04 09:22:19;;;;;;;;;;;;;;;-144.99;62.30;52358.41;5041119;28;19984;-69
2023/04/04 09:24:49;;;;;;;;;;;;;;;-144.99;62.58;52346.19;5042566;28;19972;-71
2023/04/04 09:27:16;;;;;;;;;;;;;;;-144.99;62.95;52325.81;5038981;28;19929;-71
2023/04/04 09:29:42;;;;;;;;;;;;;;;-144.99;63.06;52323.75;5040959;28;19971;-71
2023/04/04 09:32:09;;;;;;;;;;;;;;;-144.99;62.81;52358.41;5041610;28;19940;-71
2023/04/04 09:34:36;;;;;;;;;;;;;;;-144.99;62.13;52358.41;5041960;28;19946;-70
2023/04/04 09:37:04;;;;;;;;;;;;;;;-144.99;61.72;52309.50;5039131;28;19936;-71
2023/04/04 09:39:31;;;;;;;;;;;;;;;-144.99;62.13;52333.94;5037866;28;19980;-71
2023/04/04 09:41:59;;;;;;;;;;;;;;;-144.99;61.75;52338.03;5045218;28;19929;-69
2023/04/04 09:44:28;;;;;;;;;;;;;;;-144.99;62.05;52350.25;5043155;22;19991;-67
2023/04/04 09:47:05;;;;;;;;;;;;;;;-144.99;62.06;52317.66;5032270;28;19925;-68
2023/04/04 09:49:32;;;;;;;;;;;;;;;-144.99;61.91;52329.88;5014905;28;19932;-66
2023/04/04 09:51:59;;;;;;;;;;;;;;;-144.99;61.97;52331.91;5028166;28;20345;-68
2023/04/04 09:54:25;;;;;;;;;;;;;;;-144.99;61.68;52346.19;5033699;28;19925;-67
2023/04/04 09:56:52;;;;;;;;;;;;;;;-144.99;61.00;52333.94;5025595;28;20297;-68
2023/04/04 09:59:20;;;;;;;;;;;;;;;-144.99;60.50;52313.56;5030443;28;19971;-66
2023/04/04 10:01:49;;;;;;;;;;;;;;;-144.99;60.28;52301.34;5027071;28;19939;-68
2023/04/04 10:04:16;;;;;;;;;;;;;;;-144.99;60.84;52305.41;5018288;28;19975;-67
2023/04/04 10:06:43;;;;;;;;;;;;;;;-144.99;60.70;52289.13;5028076;28;19988;-66
2023/04/04 10:09:10;;;;;;;;;;;;;;;-144.99;60.45;52289.13;5025270;28;20282;-66
2023/04/04 10:11:37;;;;;;;;;;;;;;;-144.99;59.64;52276.88;5032533;28;20063;-68
2023/04/04 10:14:04;;;;;;;;;;;;;;;-144.99;59.44;52293.19;5036475;28;20336;-67
2023/04/04 10:16:35;;;;;;;;;;;;;;;-144.99;59.19;52297.25;5032222;28;19959;-67
2023/04/04 10:19:03;;;;;;;;;;;;;;;-144.99;58.74;52285.03;5021000;28;19937;-67
2023/04/04 10:21:30;;;;;;;;;;;;;;;-144.99;58.74;52276.88;5026778;28;19960;-68
2023/04/04 10:23:58;;;;;;;;;;;;;;;-144.99;58.33;52280.97;5024685;28;19963;-68
2023/04/04 10:26:26;;;;;;;;;;;;;;;-144.99;58.58;52248.34;5034254;28;19925;-67
2023/04/04 10:28:52;;;;;;;;;;;;;;;-144.99;57.03;52230.00;5038235;28;19925;-68
2023/04/04 10:31:22;;;;;;;;;;;;;;;-144.99;56.42;52219.81;5031921;28;19975;-68
2023/04/04 10:33:55;;;;;;;;;;;;;;;-144.99;56.43;52248.34;5029629;28;19933;-68
2023/04/04 10:36:22;;;;;;;;;;;;;;;-144.99;56.49;52240.19;5025038;28;19925;-67
2023/04/04 10:38:55;;;;;;;;;;;;;;;-144.99;56.81;52207.59;5026157;28;20344;-68
2023/04/04 10:41:22;;;;;;;;;;;;;;;-144.99;56.61;52203.50;5024833;28;20256;-66
2023/04/04 10:43:51;;;;;;;;;;;;;;;-144.99;56.29;52195.34;5028915;28;20024;-68
2023/04/04 10:46:19;;;;;;;;;;;;;;;-144.99;55.75;52166.81;5022499;28;19925;-67
2023/04/04 10:48:47;;;;;;;;;;;;;;;-144.99;55.87;52138.28;5028268;28;19964;-68
2023/04/04 10:51:15;;;;;;;;;;;;;;;-144.99;55.35;52146.44;5031108;28;19975;-68
2023/04/04 10:53:42;;;;;;;;;;;;;;;-144.99;55.11;52154.59;5029582;28;19971;-68
2023/04/04 10:56:09;;;;;;;;;;;;;;;-144.99;54.96;52152.56;5028566;28;19964;-69
2023/04/04 10:58:39;;;;;;;;;;;;;;;-144.99;55.52;52183.13;5020335;28;20015;-68
2023/04/04 11:01:07;;;;;;;;;;;;;;;-144.99;55.39;52193.31;5034251;28;19983;-67
2023/04/04 11:03:53;;;;;;;;;;;;;;;-144.99;55.88;52162.75;5034740;28;19937;-67
2023/04/04 11:06:25;;;;;;;;;;;;;;;-144.99;55.60;52183.13;5022934;28;19929;-68
2023/04/04 11:08:54;;;;;;;;;;;;;;;-144.99;55.29;52148.47;5026164;28;19932;-68
2023/04/04 11:11:21;;;;;;;;;;;;;;;-144.99;55.31;52156.63;5028514;28;19980;-68
2023/04/04 11:13:59;;;;;;;;;;;;;;;-144.99;54.59;52174.97;5022395;28;19925;-68
2023/04/04 11:16:26;;;;;;;;;;;;;;;-144.99;55.18;52193.31;5023387;28;20364;-68
2023/04/04 11:18:59;;;;;;;;;;;;;;;-144.99;54.72;52152.56;5029971;28;19932;-68
2023/04/04 11:21:32;;;;;;;;;;;;;;;-144.99;55.02;52174.97;5017950;28;19926;-70
2023/04/04 11:24:15;;;;;;;;;;;;;;;-144.99;54.50;52158.66;5030539;28;19926;-70
2023/04/04 11:26:42;;;;;;;;;;;;;;;-144.99;55.01;52203.50;5029820;28;19925;-68
2023/04/04 11:29:13;;;;;;;;;;;;;;;-144.99;55.08;52244.28;5030774;28;19925;-68
2023/04/04 11:31:41;;;;;;;;;;;;;;;-144.99;55.32;52207.59;5031150;28;19944;-69
2023/04/04 11:34:08;;;;;;;;;;;;;;;-144.99;55.06;52187.19;5020508;28;19936;-68
2023/04/04 11:36:52;;;;;;;;;;;;;;;-144.99;54.73;52187.19;5034129;28;20318;-69
2023/04/04 11:39:24;;;;;;;;;;;;;;;-144.99;54.85;52289.13;5021218;28;19925;-67
2023/04/04 11:41:53;;;;;;;;;;;;;;;-144.99;55.09;52285.03;5018541;28;19926;-67
2023/04/04 11:44:20;;;;;;;;;;;;;;;-144.99;55.15;52276.88;5026032;28;19933;-68
2023/04/04 11:46:47;;;;;;;;;;;;;;;-144.99;55.88;52264.66;5027482;28;19972;-68
2023/04/04 11:49:14;;;;;;;;;;;;;;;-144.99;56.10;52289.13;5027511;28;20023;-68
2023/04/04 11:51:41;;;;;;;;;;;;;;;-144.99;56.00;52317.66;5026364;28;19969;-68
2023/04/04 11:54:15;;;;;;;;;;;;;;;-144.99;56.17;52293.19;5031184;28;20023;-68
2023/04/04 11:56:43;;;;;;;;;;;;;;;-144.99;56.03;52305.41;5014355;28;19925;-68
2023/04/04 11:59:10;;;;;;;;;;;;;;;-144.99;56.20;52276.88;5024172;28;20538;-67
2023/04/04 12:01:37;;;;;;;;;;;;;;;-144.99;56.40;52280.97;5030123;28;20007;-66
2023/04/04 12:04:04;;;;;;;;;;;;;;;-144.99;55.40;52264.66;5026126;28;19948;-69
2023/04/04 12:06:31;;;;;;;;;;;;;;;-144.99;55.62;52285.03;5032135;28;20362;-67
2023/04/04 12:08:58;;;;;;;;;;;;;;;-144.99;55.22;52246.31;5026406;28;19979;-67
2023/04/04 12:11:28;;;;;;;;;;;;;;;-144.99;55.58;52272.81;5027688;28;19998;-67
2023/04/04 12:13:54;;;;;;;;;;;;;;;-144.99;55.44;52278.91;5030056;28;19932;-68
2023/04/04 12:16:21;;;;;;;;;;;;;;;-144.99;54.69;52256.50;5023408;28;19925;-68
2023/04/04 12:18:48;;;;;;;;;;;;;;;-144.99;54.16;52138.28;5029778;28;20003;-68
2023/04/04 12:21:15;;;;;;;;;;;;;;;-144.99;53.81;52111.78;5028107;28;19929;-67
2023/04/04 12:23:41;;;;;;;;;;;;;;;-144.99;53.39;52101.59;5029325;28;19925;-69
2023/04/04 12:26:10;;;;;;;;;;;;;;;-144.99;53.04;52085.31;5023361;28;19987;-67
2023/04/04 12:28:38;;;;;;;;;;;;;;;-144.99;52.15;52130.13;5027961;28;20051;-68